createdAt,value
2023-02-17T00:00:05.926Z,100983.66
2023-02-17T00:02:49.795Z,100984.50
2023-02-17T00:05:34.954Z,100962.00
2023-02-17T00:08:18.904Z,100973.19
2023-02-17T00:11:02.976Z,100987.88
2023-02-17T00:13:47.395Z,100956.72
2023-02-17T00:16:31.268Z,100981.03
2023-02-17T00:19:27.201Z,100989.78
2023-02-17T00:22:12.441Z,100945.66
2023-02-17T00:24:56.211Z,100959.53
2023-02-17T00:27:40.069Z,100964.72
2023-02-17T00:30:24.119Z,100965.59
2023-02-17T00:33:09.926Z,100969.91
2023-02-17T00:35:53.569Z,100959.56
2023-02-17T00:38:38.893Z,100951.00
2023-02-17T00:41:23.638Z,100930.97
2023-02-17T00:44:07.396Z,100952.63
2023-02-17T00:46:51.673Z,100925.75
2023-02-17T00:49:37.212Z,100945.59
2023-02-17T00:52:21.054Z,100944.75
2023-02-17T00:55:06.733Z,100935.06
2023-02-17T00:57:50.857Z,100932.44
2023-02-17T01:00:34.956Z,100932.53
2023-02-17T01:03:20.286Z,100929.03
2023-02-17T01:06:09.048Z,100922.13
2023-02-17T01:08:53.208Z,100909.13
2023-02-17T01:11:38.966Z,100909.16
2023-02-17T01:14:22.820Z,100903.06
2023-02-17T01:17:06.688Z,100913.59
2023-02-17T01:19:50.513Z,100907.50
2023-02-17T01:22:35.030Z,100906.63
2023-02-17T01:25:18.891Z,100899.66
2023-02-17T01:28:04.631Z,100889.22
2023-02-17T01:30:49.353Z,100855.44
2023-02-17T01:33:33.212Z,100889.28
2023-02-17T01:36:19.715Z,100886.69
2023-02-17T01:39:03.594Z,100884.00
2023-02-17T01:41:47.658Z,100883.19
2023-02-17T01:44:34.150Z,100870.97
2023-02-17T01:47:18.004Z,100869.25
2023-02-17T01:50:01.846Z,100877.84
2023-02-17T01:52:47.665Z,100847.63
2023-02-17T01:55:35.090Z,100875.34
2023-02-17T01:58:25.968Z,100878.84
2023-02-17T02:01:11.192Z,100885.00
2023-02-17T02:03:55.879Z,100831.25
2023-02-17T02:06:42.065Z,100864.13
2023-02-17T02:09:31.443Z,100864.16
2023-02-17T02:12:23.558Z,100864.03
2023-02-17T02:15:10.647Z,100856.34
2023-02-17T02:18:24.405Z,100865.09
2023-02-17T02:21:34.836Z,100840.69
2023-02-17T02:24:29.379Z,100847.56
2023-02-17T02:27:41.750Z,100845.69
2023-02-17T02:30:42.425Z,100847.53
2023-02-17T02:33:35.547Z,100839.84
2023-02-17T02:36:23.963Z,100825.19
2023-02-17T02:39:13.270Z,100838.25
2023-02-17T02:42:00.140Z,100845.19
2023-02-17T02:44:44.325Z,100837.38
2023-02-17T02:47:44.754Z,100850.34
2023-02-17T02:50:44.574Z,100801.06
2023-02-17T02:53:53.626Z,100845.16
2023-02-17T02:56:54.260Z,100852.16
2023-02-17T02:59:53.711Z,100821.03
2023-02-17T03:02:44.258Z,100856.47
2023-02-17T03:05:36.819Z,100840.09
2023-02-17T03:08:26.176Z,100852.19
2023-02-17T03:11:10.060Z,100838.25
2023-02-17T03:13:53.765Z,100862.50
2023-02-17T03:16:40.141Z,100814.84
2023-02-17T03:19:26.152Z,100851.16
2023-02-17T03:22:20.901Z,100858.97
2023-02-17T03:25:05.570Z,100858.03
2023-02-17T03:27:49.731Z,100852.97
2023-02-17T03:30:33.631Z,100852.97
2023-02-17T03:33:17.524Z,100850.44
2023-02-17T03:36:01.297Z,100850.41
2023-02-17T03:38:46.670Z,100839.97
2023-02-17T03:41:30.382Z,100837.38
2023-02-17T03:44:14.186Z,100806.25
2023-02-17T03:46:57.954Z,100852.94
2023-02-17T03:49:41.636Z,100858.19
2023-02-17T03:52:25.441Z,100852.91
2023-02-17T03:55:10.682Z,100857.28
2023-02-17T03:57:55.859Z,100842.50
2023-02-17T04:00:39.828Z,100837.41
2023-02-17T04:03:23.734Z,100842.63
2023-02-17T04:06:08.842Z,100837.22
2023-02-17T04:08:52.658Z,100830.31
2023-02-17T04:11:38.082Z,100820.03
2023-02-17T04:14:21.825Z,100832.22
2023-02-17T04:17:05.581Z,100841.69
2023-02-17T04:19:49.347Z,100828.66
2023-02-17T04:22:33.125Z,100815.84
2023-02-17T04:25:17.015Z,100795.97
2023-02-17T04:28:02.250Z,100795.84
2023-02-17T04:30:46.605Z,100823.53
2023-02-17T04:33:30.969Z,100813.06
2023-02-17T04:36:14.755Z,100819.88
2023-02-17T04:38:58.833Z,100823.38
2023-02-17T04:41:42.650Z,100803.53
2023-02-17T04:44:28.010Z,100834.63
2023-02-17T04:47:11.844Z,100827.69
2023-02-17T04:49:55.727Z,100839.00
2023-02-17T04:52:39.929Z,100847.56
2023-02-17T04:55:23.871Z,100845.97
2023-02-17T04:58:07.694Z,100818.31
2023-02-17T05:00:52.925Z,100838.09
2023-02-17T05:03:36.786Z,100856.13
2023-02-17T05:06:20.611Z,100848.13
2023-02-17T05:09:04.588Z,100849.13
2023-02-17T05:11:48.315Z,100853.00
2023-02-17T05:14:32.080Z,100857.28
2023-02-17T05:17:17.286Z,100851.31
2023-02-17T05:20:01.387Z,100865.97
2023-02-17T05:22:46.631Z,100823.47
2023-02-17T05:25:30.853Z,100870.16
2023-02-17T05:28:14.692Z,100869.97
2023-02-17T05:30:58.589Z,100831.94
2023-02-17T05:33:43.752Z,100823.38
2023-02-17T05:36:27.515Z,100879.41
2023-02-17T05:39:11.332Z,100876.81
2023-02-17T05:41:56.657Z,100863.78
2023-02-17T05:44:40.526Z,100842.03
2023-02-17T05:47:26.650Z,100879.94
2023-02-17T05:50:13.529Z,100861.44
2023-02-17T05:52:57.450Z,100873.16
2023-02-17T05:55:41.167Z,100845.28
2023-02-17T05:58:25.159Z,100880.44
2023-02-17T06:01:09.911Z,100868.09
2023-02-17T06:03:53.905Z,100876.16
2023-02-17T06:06:39.238Z,100861.38
2023-02-17T06:09:23.102Z,100873.34
2023-02-17T06:12:07.245Z,100865.97
2023-02-17T06:14:50.994Z,100875.00
2023-02-17T06:17:34.789Z,100870.56
2023-02-17T06:20:18.833Z,100875.63
2023-02-17T06:23:03.994Z,100876.91
2023-02-17T06:25:47.887Z,100870.09
2023-02-17T06:28:33.645Z,100869.88
2023-02-17T06:31:18.786Z,100877.31
2023-02-17T06:34:04.327Z,100869.03
2023-02-17T06:36:50.402Z,100875.63
2023-02-17T06:39:35.625Z,100881.56
2023-02-17T06:42:19.684Z,100883.19
2023-02-17T06:45:06.138Z,100884.63
2023-02-17T06:47:50.130Z,100885.06
2023-02-17T06:50:34.067Z,100882.84
2023-02-17T06:53:17.853Z,100885.31
2023-02-17T06:56:03.059Z,100872.72
2023-02-17T06:58:46.916Z,100879.56
2023-02-17T07:01:31.228Z,100877.75
2023-02-17T07:04:15.074Z,100886.91
2023-02-17T07:06:59.040Z,100899.19
2023-02-17T07:09:42.905Z,100891.28
2023-02-17T07:12:29.141Z,100858.19
2023-02-17T07:15:13.108Z,100788.19
2023-02-17T07:17:56.999Z,100899.28
2023-02-17T07:20:40.744Z,100891.00
2023-02-17T07:23:25.081Z,100887.19
2023-02-17T07:26:10.668Z,100872.41
2023-02-17T07:28:56.084Z,100895.97
2023-02-17T07:31:40.012Z,100889.69
2023-02-17T07:34:23.935Z,100862.44
2023-02-17T07:37:07.731Z,100893.59
2023-02-17T07:39:52.480Z,100888.72
2023-02-17T07:42:36.306Z,100893.88
2023-02-17T07:45:21.563Z,100895.41
2023-02-17T07:48:06.105Z,100908.53
2023-02-17T07:50:49.970Z,100902.56
2023-02-17T07:53:34.018Z,100908.72
2023-02-17T07:56:19.964Z,100912.78
2023-02-17T07:59:03.854Z,100910.94
2023-02-17T08:01:49.890Z,100918.38
2023-02-17T08:04:33.968Z,100923.06
2023-02-17T08:07:20.298Z,100911.06
2023-02-17T08:10:22.728Z,100909.56
2023-02-17T08:13:21.909Z,100901.06
2023-02-17T08:16:06.574Z,100890.00
2023-02-17T08:18:51.923Z,100910.78
2023-02-17T08:21:36.044Z,100896.19
2023-02-17T08:24:21.456Z,100912.25
2023-02-17T08:27:06.623Z,100879.72
2023-02-17T08:29:51.338Z,100919.50
2023-02-17T08:32:35.152Z,100907.09
2023-02-17T08:35:22.609Z,100918.97
2023-02-17T08:38:06.694Z,100916.69
2023-02-17T08:40:51.040Z,100923.34
2023-02-17T08:43:34.916Z,100931.97
2023-02-17T08:46:20.403Z,100918.28
2023-02-17T08:49:05.065Z,100928.06
2023-02-17T08:51:51.388Z,100894.69
2023-02-17T08:54:35.529Z,100923.25
2023-02-17T08:57:21.769Z,100893.63
2023-02-17T09:00:08.374Z,100922.38
2023-02-17T09:02:52.874Z,100918.75
2023-02-17T09:05:37.181Z,100875.75
2023-02-17T09:08:23.606Z,100910.84
2023-02-17T09:11:09.510Z,100921.88
2023-02-17T09:13:53.451Z,100904.91
2023-02-17T09:16:39.602Z,100913.00
2023-02-17T09:19:25.977Z,100906.56
2023-02-17T09:22:13.616Z,100902.28
2023-02-17T09:25:03.010Z,100909.22
2023-02-17T09:27:47.134Z,100892.75
2023-02-17T09:30:31.684Z,100900.63
2023-02-17T09:33:15.563Z,100898.88
2023-02-17T09:35:59.609Z,100903.28
2023-02-17T09:38:44.254Z,100903.31
2023-02-17T09:41:35.782Z,100882.44
2023-02-17T09:44:23.966Z,100862.28
2023-02-17T09:47:13.414Z,100895.19
2023-02-17T09:50:03.693Z,100887.94
2023-02-17T09:52:56.689Z,100892.84
2023-02-17T09:55:46.207Z,100885.25
2023-02-17T09:58:36.050Z,100881.59
2023-02-17T10:01:22.997Z,100893.44
2023-02-17T10:04:12.230Z,100844.38
2023-02-17T10:07:02.895Z,100848.47
2023-02-17T10:09:52.433Z,100861.69
2023-02-17T10:12:41.341Z,100857.25
2023-02-17T10:15:32.015Z,100869.34
2023-02-17T10:18:22.902Z,100860.84
2023-02-17T10:21:13.257Z,100854.56
2023-02-17T10:23:57.583Z,100859.91
2023-02-17T10:26:53.686Z,100825.84
2023-02-17T10:29:49.564Z,100861.94
2023-02-17T10:32:46.001Z,100808.81
2023-02-17T10:35:42.832Z,100837.69
2023-02-17T10:38:42.934Z,100831.75
2023-02-17T10:41:32.669Z,100844.72
2023-02-17T10:44:22.488Z,100840.53
2023-02-17T10:47:07.162Z,100832.56
2023-02-17T10:49:55.867Z,100822.50
2023-02-17T10:52:41.613Z,100833.19
2023-02-17T10:55:35.109Z,100832.53
2023-02-17T10:58:26.140Z,100839.97
2023-02-17T11:01:10.206Z,100821.25
2023-02-17T11:04:03.231Z,100818.63
2023-02-17T11:06:51.553Z,100789.59
2023-02-17T11:09:36.458Z,100777.06
2023-02-17T11:12:26.367Z,100818.19
2023-02-17T11:15:19.713Z,100819.00
2023-02-17T11:18:11.699Z,100815.13
2023-02-17T11:21:03.108Z,100815.22
2023-02-17T11:23:55.034Z,100808.19
2023-02-17T11:26:39.348Z,100807.47
2023-02-17T11:29:24.976Z,100780.31
2023-02-17T11:32:12.534Z,100799.78
2023-02-17T11:34:58.917Z,100798.47
2023-02-17T11:37:43.956Z,100806.47
2023-02-17T11:40:30.972Z,100800.28
2023-02-17T11:43:19.279Z,100791.88
2023-02-17T11:46:16.575Z,100767.53
2023-02-17T11:49:39.935Z,100797.94
2023-02-17T11:52:39.836Z,100786.09
2023-02-17T11:55:30.487Z,100780.28
2023-02-17T11:58:31.083Z,100787.13
2023-02-17T12:01:25.944Z,100789.69
2023-02-17T12:04:26.878Z,100755.09
2023-02-17T12:07:40.951Z,100759.47
2023-02-17T12:10:38.438Z,100759.16
2023-02-17T12:13:32.742Z,100767.41
2023-02-17T12:16:27.902Z,100758.06
2023-02-17T12:19:37.193Z,100712.84
2023-02-17T12:22:28.148Z,100707.22
2023-02-17T12:25:26.155Z,100754.06
2023-02-17T12:28:29.727Z,100749.03
2023-02-17T12:31:27.762Z,100761.03
2023-02-17T12:34:21.213Z,100729.69
2023-02-17T12:37:08.619Z,100735.75
2023-02-17T12:39:56.225Z,100706.03
2023-02-17T12:42:44.964Z,100768.91
2023-02-17T12:45:38.392Z,100780.38
2023-02-17T12:48:35.357Z,100776.19
2023-02-17T12:51:24.388Z,100675.03
2023-02-17T12:54:18.495Z,100771.78
2023-02-17T12:57:12.606Z,100769.09
2023-02-17T12:59:59.864Z,100769.09
2023-02-17T13:02:43.840Z,100764.22
2023-02-17T13:05:35.361Z,100766.13
2023-02-17T13:08:24.471Z,100766.88
2023-02-17T13:11:12.517Z,100752.53
2023-02-17T13:13:56.718Z,100759.09
2023-02-17T13:16:44.811Z,100766.03
2023-02-17T13:19:30.022Z,100751.16
2023-02-17T13:22:24.433Z,100752.63
2023-02-17T13:25:12.030Z,100750.19
2023-02-17T13:27:57.716Z,100749.72
2023-02-17T13:30:43.324Z,100746.94
2023-02-17T13:33:32.890Z,100744.94
2023-02-17T13:36:23.346Z,100750.22
2023-02-17T13:39:33.322Z,100749.53
2023-02-17T13:42:40.692Z,100741.16
2023-02-17T13:45:27.884Z,100733.78
2023-02-17T13:48:23.773Z,100749.41
2023-02-17T13:51:09.904Z,100755.53
2023-02-17T13:53:54.286Z,100745.47
2023-02-17T13:56:41.208Z,100750.25
2023-02-17T13:59:28.345Z,100742.13
2023-02-17T14:02:35.159Z,100735.13
2023-02-17T14:05:22.450Z,100752.22
2023-02-17T14:08:09.079Z,100739.88
2023-02-17T14:10:53.260Z,100715.63
2023-02-17T14:13:40.569Z,100732.84
2023-02-17T14:16:30.796Z,100731.00
2023-02-17T14:19:17.736Z,100716.94
2023-02-17T14:22:04.918Z,100721.72
2023-02-17T14:25:00.136Z,100745.31
2023-02-17T14:27:45.998Z,100725.16
2023-02-17T14:30:33.669Z,100747.28
2023-02-17T14:33:23.947Z,100756.63
2023-02-17T14:36:11.271Z,100742.28
2023-02-17T14:38:57.145Z,100765.97
2023-02-17T14:41:41.063Z,100750.25
2023-02-17T14:44:25.147Z,100743.31
2023-02-17T14:47:10.445Z,100740.50
2023-02-17T14:49:54.464Z,100743.94
2023-02-17T14:52:43.040Z,100750.31
2023-02-17T14:55:34.200Z,100764.28
2023-02-17T14:58:21.246Z,100756.34
2023-02-17T15:01:06.075Z,100753.69
2023-02-17T15:03:51.938Z,100760.69
2023-02-17T15:06:41.006Z,100755.84
2023-02-17T15:09:29.738Z,100757.66
2023-02-17T15:12:16.309Z,100763.19
2023-02-17T15:15:00.082Z,100749.50
2023-02-17T15:17:44.559Z,100763.94
2023-02-17T15:20:29.856Z,100759.97
2023-02-17T15:23:15.847Z,100759.09
2023-02-17T15:26:00.470Z,100781.56
2023-02-17T15:28:44.644Z,100761.63
2023-02-17T15:31:31.445Z,100794.59
2023-02-17T15:34:17.905Z,100793.31
2023-02-17T15:37:03.571Z,100799.75
2023-02-17T15:39:47.516Z,100797.31
2023-02-17T15:42:31.498Z,100810.00
2023-02-17T15:45:18.385Z,100801.44
2023-02-17T15:48:05.693Z,100778.56
2023-02-17T15:50:49.883Z,100770.25
2023-02-17T15:53:35.206Z,100800.97
2023-02-17T15:56:22.706Z,100812.78
2023-02-17T15:59:13.223Z,100798.03
2023-02-17T16:01:57.644Z,100815.06
2023-02-17T16:04:41.678Z,100827.84
2023-02-17T16:07:25.742Z,100830.72
2023-02-17T16:10:13.658Z,100840.84
2023-02-17T16:12:59.575Z,100829.88
2023-02-17T16:15:44.661Z,100826.13
2023-02-17T16:18:28.533Z,100809.31
2023-02-17T16:21:14.198Z,100831.81
2023-02-17T16:24:00.454Z,100825.63
2023-02-17T16:26:45.829Z,100833.78
2023-02-17T16:29:29.786Z,100820.25
2023-02-17T16:32:14.419Z,100839.97
2023-02-17T16:34:58.594Z,100842.63
2023-02-17T16:37:42.960Z,100828.00
2023-02-17T16:40:30.001Z,100800.31
2023-02-17T16:43:18.232Z,100812.72
2023-02-17T16:46:06.257Z,100826.41
2023-02-17T16:48:50.789Z,100812.63
2023-02-17T16:51:34.610Z,100832.53
2023-02-17T16:54:19.540Z,100833.31
2023-02-17T16:57:03.403Z,100834.50
2023-02-17T16:59:49.146Z,100839.41
2023-02-17T17:02:33.131Z,100834.56
2023-02-17T17:05:18.114Z,100828.63
2023-02-17T17:08:02.059Z,100826.34
2023-02-17T17:10:47.652Z,100836.00
2023-02-17T17:13:31.767Z,100833.28
2023-02-17T17:16:20.284Z,100836.34
2023-02-17T17:19:05.085Z,100831.44
2023-02-17T17:21:49.427Z,100824.41
2023-02-17T17:24:33.507Z,100821.53
2023-02-17T17:27:17.414Z,100840.69
2023-02-17T17:30:01.465Z,100834.97
2023-02-17T17:32:49.181Z,100830.34
2023-02-17T17:35:33.477Z,100835.25
2023-02-17T17:38:17.459Z,100833.47
2023-02-17T17:41:08.185Z,100841.09
2023-02-17T17:43:52.623Z,100818.50
2023-02-17T17:46:37.874Z,100844.63
2023-02-17T17:49:23.241Z,100659.13
2023-02-17T17:52:07.115Z,100835.63
2023-02-17T17:54:51.320Z,100831.66
2023-02-17T17:57:35.218Z,100804.66
2023-02-17T18:00:20.619Z,100780.44
2023-02-17T18:03:05.157Z,100805.50
2023-02-17T18:05:50.693Z,100832.13
2023-02-17T18:08:35.460Z,100831.31
2023-02-17T18:11:23.144Z,100836.53
2023-02-17T18:14:12.448Z,100811.81
2023-02-17T18:16:57.025Z,100846.34
2023-02-17T18:19:41.638Z,100844.44
2023-02-17T18:22:27.146Z,100847.88
2023-02-17T18:25:11.617Z,100845.41
2023-02-17T18:27:57.048Z,100831.50
2023-02-17T18:30:41.240Z,100838.41
2023-02-17T18:33:25.436Z,100839.56
2023-02-17T18:36:11.159Z,100849.69
2023-02-17T18:38:56.611Z,100845.69
2023-02-17T18:41:40.614Z,100854.09
2023-02-17T18:44:26.367Z,100848.56
2023-02-17T18:47:10.311Z,100852.75
2023-02-17T18:49:54.496Z,100855.34
2023-02-17T18:52:38.586Z,100843.13
2023-02-17T18:55:24.004Z,100847.75
2023-02-17T18:58:07.992Z,100836.88
2023-02-17T19:00:52.100Z,100854.69
2023-02-17T19:03:35.918Z,100851.03
2023-02-17T19:06:22.724Z,100859.34
2023-02-17T19:09:07.016Z,100850.25
2023-02-17T19:11:52.394Z,100817.81
2023-02-17T19:14:36.649Z,100865.69
2023-02-17T19:17:20.892Z,100865.81
2023-02-17T19:20:05.244Z,100867.38
2023-02-17T19:22:49.285Z,100866.91
2023-02-17T19:25:33.223Z,100841.28
2023-02-17T19:28:18.484Z,100866.66
2023-02-17T19:31:02.801Z,100827.22
2023-02-17T19:33:47.292Z,100865.63
2023-02-17T19:36:31.183Z,100857.44
2023-02-17T19:39:15.122Z,100869.59
2023-02-17T19:41:58.947Z,100860.06
2023-02-17T19:44:44.566Z,100859.94
2023-02-17T19:47:30.891Z,100854.31
2023-02-17T19:50:17.811Z,100851.03
2023-02-17T19:53:01.927Z,100844.16
2023-02-17T19:55:45.878Z,100833.00
2023-02-17T19:58:29.815Z,100844.94
2023-02-17T20:01:18.211Z,100848.25
2023-02-17T20:04:05.602Z,100844.34
2023-02-17T20:06:49.686Z,100839.63
2023-02-17T20:09:33.431Z,100836.41
2023-02-17T20:12:17.965Z,100819.97
2023-02-17T20:15:01.865Z,100827.78
2023-02-17T20:17:48.690Z,100815.75
2023-02-17T20:20:32.521Z,100809.63
2023-02-17T20:23:16.497Z,100817.59
2023-02-17T20:26:00.909Z,100809.59
2023-02-17T20:28:45.124Z,100806.75
2023-02-17T20:31:29.662Z,100801.25
2023-02-17T20:34:27.174Z,100810.31
2023-02-17T20:37:11.536Z,100787.88
2023-02-17T20:39:55.624Z,100785.88
2023-02-17T20:42:39.468Z,100795.50
2023-02-17T20:45:23.532Z,100809.13
2023-02-17T20:48:07.407Z,100806.44
2023-02-17T20:50:52.656Z,100806.84
2023-02-17T20:53:36.734Z,100753.03
2023-02-17T20:56:22.971Z,100799.91
2023-02-17T20:59:09.007Z,100801.25
2023-02-17T21:01:53.152Z,100799.47
2023-02-17T21:04:37.276Z,100805.00
2023-02-17T21:07:22.501Z,100809.97
2023-02-17T21:10:08.693Z,100797.22
2023-02-17T21:12:52.621Z,100811.16
2023-02-17T21:15:36.504Z,100765.13
2023-02-17T21:18:20.612Z,100800.22
2023-02-17T21:21:04.678Z,100795.28
2023-02-17T21:23:50.028Z,100799.41
2023-02-17T21:26:34.166Z,100796.47
2023-02-17T21:29:18.603Z,100791.78
2023-02-17T21:32:02.498Z,100784.09
2023-02-17T21:34:46.527Z,100745.91
2023-02-17T21:37:30.823Z,100783.84
2023-02-17T21:40:16.386Z,100732.19
2023-02-17T21:43:17.429Z,100779.66
2023-02-17T21:46:01.490Z,100739.56
2023-02-17T21:48:47.973Z,100767.59
2023-02-17T21:51:32.195Z,100758.59
2023-02-17T21:54:16.241Z,100759.44
2023-02-17T21:57:04.228Z,100715.34
2023-02-17T21:59:48.477Z,100762.22
2023-02-17T22:02:32.535Z,100714.66
2023-02-17T22:05:17.138Z,100694.22
2023-02-17T22:08:00.904Z,100747.88
2023-02-17T22:10:46.077Z,100704.06
2023-02-17T22:13:31.264Z,100759.13
2023-02-17T22:16:15.090Z,100727.03
2023-02-17T22:18:58.967Z,100721.28
2023-02-17T22:21:43.560Z,100711.06
2023-02-17T22:24:28.101Z,100718.25
2023-02-17T22:27:12.035Z,100763.31
2023-02-17T22:29:57.982Z,100750.16
2023-02-17T22:32:43.113Z,100758.41
2023-02-17T22:35:26.907Z,100764.53
2023-02-17T22:38:11.659Z,100592.19
2023-02-17T22:40:55.548Z,100753.06
2023-02-17T22:43:42.213Z,100752.50
2023-02-17T22:46:27.809Z,100751.00
2023-02-17T22:49:12.043Z,100747.66
2023-02-17T22:51:55.868Z,100715.88
2023-02-17T22:54:41.068Z,100753.97
2023-02-17T22:57:24.936Z,100732.44
2023-02-17T23:00:09.596Z,100706.63
2023-02-17T23:02:54.875Z,100743.69
2023-02-17T23:05:38.678Z,100715.34
2023-02-17T23:08:22.539Z,100739.44
2023-02-17T23:11:07.280Z,100740.03
2023-02-17T23:13:51.122Z,100705.31
2023-02-17T23:16:35.141Z,100712.63
2023-02-17T23:19:22.761Z,100734.19
2023-02-17T23:22:09.047Z,100733.94
2023-02-17T23:24:52.803Z,100734.06
2023-02-17T23:27:36.662Z,100696.84
2023-02-17T23:30:23.174Z,100709.19
2023-02-17T23:33:06.968Z,100732.75
2023-02-17T23:35:52.143Z,100733.81
2023-02-17T23:38:36.094Z,100727.94
2023-02-17T23:41:19.833Z,100734.94
2023-02-17T23:44:03.801Z,100721.53
2023-02-17T23:46:47.904Z,100719.41
2023-02-17T23:49:31.643Z,100713.16
2023-02-17T23:52:16.829Z,100721.47
2023-02-17T23:55:00.675Z,100713.88
2023-02-17T23:57:44.390Z,100698.63
